Time;durP1;ratioP1;P1;durP2;ratioP2;P2;SDS_P1;SDS_P2;PMS_P1;PMS_P2;Temp;Humidity;BMP_temperature;BMP_pressure;BME280_temperature;BME280_humidity;BME280_pressure;Samples;Min_cycle;Max_cycle;Signal;HPM_P1;HPM_P2
2023/07/11 00:00:14;;;;;;;10.47;9.37;;;22.30;99.90;;;;;;4987343;28;20425;-61
2023/07/11 00:02:47;;;;;;;9.77;8.83;;;22.30;99.90;;;;;;4995390;28;20433;-61
2023/07/11 00:05:14;;;;;;;10.03;8.50;;;22.30;99.90;;;;;;4995706;28;20485;-61
2023/07/11 00:07:41;;;;;;;10.07;8.83;;;22.20;99.90;;;;;;4995284;28;20422;-61
2023/07/11 00:10:08;;;;;;;9.83;7.80;;;22.10;99.90;;;;;;4995465;28;20772;-61
2023/07/11 00:12:34;;;;;;;10.17;9.17;;;22.00;99.90;;;;;;4988357;28;20439;-61
2023/07/11 00:14:59;;;;;;;10.07;9.17;;;22.00;99.90;;;;;;4990237;28;20427;-61
2023/07/11 00:17:25;;;;;;;11.27;10.00;;;22.00;99.90;;;;;;4977480;28;20203;-61
2023/07/11 00:19:57;;;;;;;14.53;9.90;;;22.10;99.90;;;;;;4990997;28;20210;-60
2023/07/11 00:22:27;;;;;;;13.47;10.90;;;22.20;99.90;;;;;;4984869;28;20266;-60
2023/07/11 00:24:53;;;;;;;12.07;10.90;;;22.20;99.90;;;;;;4994441;28;20415;-61
2023/07/11 00:27:20;;;;;;;12.13;10.83;;;22.30;99.90;;;;;;4990164;28;20987;-60
2023/07/11 00:29:46;;;;;;;13.50;11.30;;;22.30;99.90;;;;;;4982432;28;20188;-61
2023/07/11 00:32:12;;;;;;;11.33;10.23;;;22.10;99.90;;;;;;4975712;28;20427;-60
2023/07/11 00:34:38;;;;;;;12.63;11.17;;;22.00;99.90;;;;;;4975605;28;20486;-60
2023/07/11 00:37:04;;;;;;;13.17;11.20;;;21.90;99.90;;;;;;4985058;28;20294;-61
2023/07/11 00:39:33;;;;;;;11.53;10.50;;;21.80;99.90;;;;;;4994649;28;20198;-61
2023/07/11 00:41:59;;;;;;;12.37;11.00;;;21.80;99.90;;;;;;4991947;28;20962;-60
2023/07/11 00:44:25;;;;;;;13.60;10.73;;;21.90;99.90;;;;;;4994879;28;20423;-61
2023/07/11 00:46:51;;;;;;;14.90;11.40;;;22.00;99.90;;;;;;4985738;28;21070;-61
2023/07/11 00:49:19;;;;;;;13.00;11.80;;;22.00;99.90;;;;;;4989336;28;20490;-61
2023/07/11 00:51:56;;;;;;;14.47;11.30;;;22.00;99.90;;;;;;4994825;28;20777;-61
2023/07/11 00:54:26;;;;;;;17.13;12.57;;;22.00;99.90;;;;;;4993665;28;20430;-62
2023/07/11 00:56:53;;;;;;;16.13;12.40;;;21.90;99.90;;;;;;4985862;28;20454;-61
2023/07/11 00:59:21;;;;;;;17.80;12.70;;;21.80;99.90;;;;;;4976575;28;20443;-60
2023/07/11 01:01:55;;;;;;;14.47;13.03;;;21.70;99.90;;;;;;4986822;28;20430;-61
2023/07/11 01:04:21;;;;;;;17.23;15.20;;;21.70;99.90;;;;;;4985599;28;20443;-60
2023/07/11 01:06:49;;;;;;;18.30;16.60;;;21.80;99.90;;;;;;4978541;28;20454;-60
2023/07/11 01:09:15;;;;;;;23.43;19.13;;;21.70;99.90;;;;;;4975487;28;20204;-61
2023/07/11 01:11:59;;;;;;;24.20;21.70;;;21.70;99.90;;;;;;4989119;28;20423;-61
2023/07/11 01:14:26;;;;;;;24.47;22.00;;;21.70;99.90;;;;;;4994285;28;20199;-61
2023/07/11 01:16:51;;;;;;;26.03;23.40;;;21.80;99.90;;;;;;4994281;28;20461;-60
2023/07/11 01:19:17;;;;;;;30.10;27.10;;;21.90;99.90;;;;;;4993887;28;20438;-61
2023/07/11 01:21:44;;;;;;;30.93;25.80;;;21.80;99.90;;;;;;4988304;28;20550;-61
2023/07/11 01:24:09;;;;;;;30.07;27.03;;;21.80;99.90;;;;;;4988975;28;20806;-60
2023/07/11 01:26:35;;;;;;;31.83;28.73;;;21.70;99.90;;;;;;4990949;28;20533;-61
2023/07/11 01:29:00;;;;;;;33.50;29.03;;;21.70;99.90;;;;;;4991500;28;20601;-60
2023/07/11 01:31:26;;;;;;;33.63;30.60;;;21.70;99.90;;;;;;4991390;28;20267;-60
2023/07/11 01:33:51;;;;;;;34.07;30.57;;;21.50;99.90;;;;;;4980994;28;20188;-60
2023/07/11 01:36:17;;;;;;;31.47;28.27;;;21.40;99.90;;;;;;4992420;28;20196;-60
2023/07/11 01:38:43;;;;;;;35.97;31.43;;;21.40;99.90;;;;;;4985022;28;20231;-60
2023/07/11 01:41:09;;;;;;;36.30;32.40;;;21.30;99.90;;;;;;4985070;28;20262;-61
2023/07/11 01:43:35;;;;;;;36.07;32.60;;;21.30;99.90;;;;;;4985672;28;20698;-61
2023/07/11 01:46:01;;;;;;;33.63;30.10;;;21.30;99.90;;;;;;4993488;28;20422;-60
2023/07/11 01:48:26;;;;;;;34.13;30.90;;;21.30;99.90;;;;;;4993313;28;20515;-61
2023/07/11 01:50:52;;;;;;;34.30;30.90;;;21.30;99.90;;;;;;4991174;28;20199;-61
2023/07/11 01:53:17;;;;;;;34.43;31.10;;;21.20;99.90;;;;;;4989060;28;20756;-60
2023/07/11 01:55:43;;;;;;;31.67;28.37;;;21.20;99.90;;;;;;4982194;28;20179;-61
2023/07/11 01:58:08;;;;;;;23.70;21.40;;;21.30;99.90;;;;;;4990769;28;20199;-60
2023/07/11 02:00:34;;;;;;;26.70;24.00;;;21.20;99.90;;;;;;4992642;28;20186;-61
2023/07/11 02:03:01;;;;;;;22.03;19.07;;;21.20;99.90;;;;;;4988290;28;20254;-60
2023/07/11 02:05:26;;;;;;;21.63;19.37;;;21.10;99.90;;;;;;4990755;28;20584;-61
2023/07/11 02:07:52;;;;;;;17.63;15.83;;;21.20;99.90;;;;;;4992784;28;20552;-61
2023/07/11 02:10:17;;;;;;;20.93;18.20;;;21.20;99.90;;;;;;4985714;28;20168;-60
2023/07/11 02:12:43;;;;;;;19.20;17.43;;;21.10;99.90;;;;;;4982187;28;20179;-61
2023/07/11 02:15:08;;;;;;;16.63;14.90;;;21.00;99.90;;;;;;4987839;28;20651;-60
2023/07/11 02:17:35;;;;;;;17.33;14.77;;;20.90;99.90;;;;;;4984107;28;20292;-61
2023/07/11 02:20:01;;;;;;;15.27;13.43;;;20.90;99.90;;;;;;4986023;28;20227;-60
2023/07/11 02:22:26;;;;;;;17.27;15.57;;;20.90;99.90;;;;;;4992465;28;20427;-60
2023/07/11 02:24:52;;;;;;;17.67;15.87;;;20.90;99.90;;;;;;4988929;28;20558;-60
2023/07/11 02:27:18;;;;;;;16.47;15.03;;;20.80;99.90;;;;;;4992542;28;20207;-61
2023/07/11 02:29:43;;;;;;;16.07;14.53;;;20.80;99.90;;;;;;4990223;28;20490;-60
2023/07/11 02:32:09;;;;;;;15.50;14.00;;;20.80;99.90;;;;;;4992261;28;20656;-60
2023/07/11 02:34:34;;;;;;;15.07;13.60;;;20.80;99.90;;;;;;4991100;28;20238;-60
2023/07/11 02:37:00;;;;;;;15.00;13.60;;;20.80;99.90;;;;;;4989741;28;20254;-60
2023/07/11 02:39:25;;;;;;;15.93;14.37;;;20.80;99.90;;;;;;4991312;28;20188;-60
2023/07/11 02:41:51;;;;;;;16.43;13.20;;;20.80;99.90;;;;;;4987733;28;20191;-60
2023/07/11 02:44:17;;;;;;;17.00;14.10;;;20.90;99.90;;;;;;4992066;28;20175;-60
2023/07/11 02:46:42;;;;;;;17.37;13.80;;;20.90;99.90;;;;;;4991866;28;20187;-60
2023/07/11 02:49:08;;;;;;;15.27;13.87;;;20.80;99.90;;;;;;4988413;28;20723;-60
2023/07/11 02:51:35;;;;;;;15.50;13.90;;;20.60;99.90;;;;;;4983299;28;20206;-60
2023/07/11 02:54:01;;;;;;;16.00;13.63;;;20.60;99.90;;;;;;4990980;28;20512;-60
2023/07/11 02:56:27;;;;;;;17.97;13.27;;;20.40;99.90;;;;;;4988320;28;20462;-60
2023/07/11 02:58:53;;;;;;;17.27;14.13;;;20.30;99.90;;;;;;4991241;28;20530;-60
2023/07/11 03:01:19;;;;;;;17.60;15.53;;;20.20;99.90;;;;;;4991132;28;20713;-60
2023/07/11 03:03:45;;;;;;;14.53;13.07;;;20.20;99.90;;;;;;4990961;28;20179;-60
2023/07/11 03:06:10;;;;;;;14.90;13.50;;;20.20;99.90;;;;;;4990893;28;20569;-60
2023/07/11 03:08:36;;;;;;;13.33;11.93;;;20.30;99.90;;;;;;4988018;28;20639;-60
2023/07/11 03:11:02;;;;;;;13.13;11.93;;;20.40;99.90;;;;;;4989760;28;20748;-60
2023/07/11 03:13:28;;;;;;;16.57;15.00;;;20.40;99.90;;;;;;4976651;28;20556;-60
2023/07/11 03:15:54;;;;;;;16.77;14.90;;;20.30;99.90;;;;;;4987440;28;20576;-60
2023/07/11 03:18:19;;;;;;;15.13;13.63;;;20.30;99.90;;;;;;4987411;28;20211;-60
2023/07/11 03:20:45;;;;;;;15.57;14.20;;;20.20;99.90;;;;;;4984013;28;20187;-60
2023/07/11 03:23:13;;;;;;;17.07;14.30;;;20.20;99.90;;;;;;4987794;28;20180;-60
2023/07/11 03:25:39;;;;;;;15.47;13.83;;;20.20;99.90;;;;;;4968692;28;20212;-59
2023/07/11 03:28:05;;;;;;;15.20;13.67;;;20.30;99.90;;;;;;4984321;28;21017;-60
2023/07/11 03:30:35;;;;;;;12.90;11.63;;;20.20;99.90;;;;;;4985525;28;20287;-60
2023/07/11 03:33:00;;;;;;;14.53;13.00;;;20.20;99.90;;;;;;4980894;28;20701;-60
2023/07/11 03:35:26;;;;;;;12.03;10.80;;;20.20;99.90;;;;;;4980704;28;20439;-60
2023/07/11 03:37:52;;;;;;;14.40;11.90;;;20.20;99.90;;;;;;4986689;28;20211;-60
2023/07/11 03:40:17;;;;;;;14.20;12.77;;;20.20;99.90;;;;;;4977244;28;20183;-60
2023/07/11 03:42:43;;;;;;;13.37;12.17;;;20.30;99.90;;;;;;4983350;28;20187;-60
2023/07/11 03:45:08;;;;;;;11.70;10.70;;;20.30;99.90;;;;;;4979342;28;20657;-62
2023/07/11 03:47:34;;;;;;;15.43;11.13;;;20.20;99.90;;;;;;4982431;28;20176;-60
2023/07/11 03:49:59;;;;;;;10.53;9.53;;;20.20;99.90;;;;;;4983137;28;20683;-60
2023/07/11 03:52:26;;;;;;;13.17;11.93;;;20.30;99.90;;;;;;4989348;28;20258;-60
2023/07/11 03:54:51;;;;;;;13.37;12.10;;;20.30;99.90;;;;;;4990931;28;20195;-60
2023/07/11 03:57:17;;;;;;;14.40;13.10;;;20.30;99.90;;;;;;4985182;28;20473;-60
2023/07/11 03:59:43;;;;;;;13.13;11.93;;;20.40;99.90;;;;;;4988268;28;20200;-61
2023/07/11 04:02:08;;;;;;;11.53;10.37;;;20.40;99.90;;;;;;4989527;28;20198;-60
2023/07/11 04:04:34;;;;;;;11.40;10.17;;;20.50;99.90;;;;;;4992687;28;20260;-60
2023/07/11 04:06:59;;;;;;;12.13;11.03;;;20.60;99.90;;;;;;4987421;28;20183;-60
2023/07/11 04:09:25;;;;;;;12.93;11.67;;;20.60;99.90;;;;;;4988041;28;20292;-60
2023/07/11 04:11:50;;;;;;;12.93;11.87;;;20.60;99.90;;;;;;4994158;28;20188;-60
2023/07/11 04:14:17;;;;;;;13.70;12.40;;;20.70;99.90;;;;;;4994572;28;20172;-60
2023/07/11 04:16:43;;;;;;;13.60;12.40;;;20.70;99.90;;;;;;4994629;28;20283;-60
2023/07/11 04:19:08;;;;;;;13.30;11.40;;;20.80;99.90;;;;;;4991172;28;20454;-60
2023/07/11 04:21:35;;;;;;;13.10;11.20;;;20.80;99.90;;;;;;4991969;28;20264;-60
2023/07/11 04:24:01;;;;;;;11.60;10.40;;;20.90;99.90;;;;;;4992749;28;20219;-60
2023/07/11 04:26:26;;;;;;;11.03;9.97;;;20.90;99.90;;;;;;4987496;28;20469;-60
2023/07/11 04:28:52;;;;;;;11.90;10.90;;;21.00;99.90;;;;;;4992574;28;20298;-60
2023/07/11 04:31:17;;;;;;;12.33;9.80;;;21.00;99.90;;;;;;4988853;28;20184;-59
2023/07/11 04:33:43;;;;;;;11.97;10.73;;;21.10;99.90;;;;;;4990534;28;20230;-60
2023/07/11 04:36:12;;;;;;;12.43;10.63;;;21.10;99.90;;;;;;4986959;28;20209;-60
2023/07/11 04:38:38;;;;;;;12.50;10.03;;;21.20;99.90;;;;;;4992347;28;20250;-60
2023/07/11 04:41:05;;;;;;;11.27;10.17;;;21.30;99.90;;;;;;4990800;28;20435;-60
2023/07/11 04:43:31;;;;;;;11.63;10.20;;;21.40;99.90;;;;;;4991891;28;20940;-60
2023/07/11 04:45:57;;;;;;;11.20;9.93;;;21.60;99.90;;;;;;4989310;28;20963;-60
2023/07/11 04:48:23;;;;;;;10.93;10.03;;;21.70;99.90;;;;;;4990810;28;20463;-61
2023/07/11 04:50:54;;;;;;;11.17;10.00;;;21.90;99.90;;;;;;4983212;28;21341;-60
2023/07/11 04:53:20;;;;;;;10.97;9.70;;;22.00;99.90;;;;;;4985332;28;20183;-60
2023/07/11 04:55:45;;;;;;;12.30;10.27;;;22.10;99.90;;;;;;4992850;28;20438;-60
2023/07/11 04:58:11;;;;;;;11.40;9.63;;;22.00;99.90;;;;;;4988788;28;20199;-61
2023/07/11 05:00:36;;;;;;;11.23;10.23;;;22.20;99.90;;;;;;4988662;28;20210;-60
2023/07/11 05:03:02;;;;;;;17.30;14.57;;;22.30;99.90;;;;;;4984546;28;20188;-60
2023/07/11 05:05:27;;;;;;;11.27;10.27;;;22.40;99.90;;;;;;4981612;28;20634;-61
2023/07/11 05:07:53;;;;;;;14.07;12.80;;;22.60;99.90;;;;;;4990039;28;20589;-59
2023/07/11 05:10:18;;;;;;;13.40;11.93;;;22.70;99.90;;;;;;4990891;28;20704;-60
2023/07/11 05:12:44;;;;;;;12.90;11.70;;;22.80;99.90;;;;;;4991591;28;20704;-60
2023/07/11 05:15:11;;;;;;;11.60;10.50;;;22.80;99.90;;;;;;4989177;28;20210;-60
2023/07/11 05:17:37;;;;;;;12.43;11.13;;;23.00;99.90;;;;;;4988188;28;20204;-61
2023/07/11 05:20:02;;;;;;;12.13;11.10;;;23.20;99.90;;;;;;4980840;28;21015;-60
2023/07/11 05:22:28;;;;;;;11.63;10.50;;;23.30;99.90;;;;;;4989390;28;20221;-61
2023/07/11 05:24:54;;;;;;;11.40;10.27;;;23.50;99.90;;;;;;4976973;28;20215;-60
2023/07/11 05:27:19;;;;;;;13.57;10.53;;;23.60;99.90;;;;;;4982257;28;20180;-60
2023/07/11 05:29:45;;;;;;;13.13;10.70;;;23.70;99.90;;;;;;4986915;28;20211;-60
2023/07/11 05:32:10;;;;;;;17.60;11.47;;;23.80;99.90;;;;;;4991780;28;20618;-60
2023/07/11 05:34:36;;;;;;;12.70;10.93;;;24.00;99.90;;;;;;4992410;28;20191;-60
2023/07/11 05:37:02;;;;;;;13.60;12.20;;;24.10;99.90;;;;;;4991563;28;20211;-60
2023/07/11 05:39:27;;;;;;;13.87;12.00;;;24.30;99.90;;;;;;4992254;28;20203;-60
2023/07/11 05:41:53;;;;;;;13.93;11.30;;;24.50;99.90;;;;;;4989814;28;20199;-59
2023/07/11 05:44:19;;;;;;;12.60;10.90;;;24.40;99.90;;;;;;4991076;28;20176;-61
2023/07/11 05:46:44;;;;;;;11.70;10.70;;;24.50;99.90;;;;;;4986248;28;20179;-60
2023/07/11 05:49:10;;;;;;;11.70;9.63;;;24.60;99.90;;;;;;4986434;28;20204;-61
2023/07/11 05:51:35;;;;;;;10.70;9.53;;;24.60;99.90;;;;;;4987250;28;20279;-61
2023/07/11 05:54:01;;;;;;;14.33;10.17;;;24.60;99.90;;;;;;4984492;28;20570;-60
2023/07/11 05:56:27;;;;;;;11.63;10.10;;;24.70;99.90;;;;;;4981866;28;20215;-66
2023/07/11 05:58:53;;;;;;;12.23;9.20;;;24.70;99.90;;;;;;4984408;28;20834;-67
2023/07/11 06:01:21;;;;;;;12.10;9.73;;;24.70;99.90;;;;;;4976503;28;20184;-67
2023/07/11 06:04:00;;;;;;;11.07;8.83;;;24.70;99.90;;;;;;4986480;28;20454;-67
2023/07/11 06:06:26;;;;;;;10.03;9.20;;;24.90;99.90;;;;;;4981138;28;20450;-67
2023/07/11 06:08:51;;;;;;;10.73;9.53;;;25.10;99.90;;;;;;4983218;28;20531;-67
2023/07/11 06:11:17;;;;;;;8.93;8.23;;;25.30;99.90;;;;;;4982763;28;20550;-68
2023/07/11 06:13:42;;;;;;;12.70;8.13;;;25.50;99.90;;;;;;4981321;28;20188;-67
2023/07/11 06:16:13;;;;;;;8.33;7.63;;;25.80;99.90;;;;;;4984321;28;20212;-67
2023/07/11 06:18:39;;;;;;;8.00;7.20;;;26.10;99.90;;;;;;4987694;28;20239;-67
2023/07/11 06:21:07;;;;;;;7.30;6.70;;;26.10;99.90;;;;;;4987763;28;20483;-67
2023/07/11 06:23:32;;;;;;;7.40;6.70;;;26.00;99.90;;;;;;4979314;28;20186;-67
2023/07/11 06:25:58;;;;;;;11.77;8.40;;;25.90;99.50;;;;;;4989600;28;20936;-68
2023/07/11 06:28:24;;;;;;;8.63;7.80;;;26.00;99.20;;;;;;4987690;28;20246;-66
2023/07/11 06:30:49;;;;;;;8.90;7.27;;;26.20;99.00;;;;;;4986028;28;20471;-67
2023/07/11 06:33:17;;;;;;;9.20;7.93;;;26.40;97.60;;;;;;4989812;28;20192;-66
2023/07/11 06:35:48;;;;;;;9.33;6.63;;;26.60;97.50;;;;;;4991970;28;20564;-67
2023/07/11 06:38:14;;;;;;;8.93;7.30;;;26.70;96.40;;;;;;4966377;28;20459;-66
2023/07/11 06:40:39;;;;;;;8.20;6.53;;;26.90;95.20;;;;;;4981246;28;20443;-67
2023/07/11 06:43:05;;;;;;;8.80;8.00;;;26.90;94.50;;;;;;4986942;28;20212;-67
2023/07/11 06:45:30;;;;;;;7.00;6.37;;;27.10;93.40;;;;;;4982655;28;20179;-67
2023/07/11 06:47:56;;;;;;;9.50;6.80;;;27.50;92.30;;;;;;4988496;28;20215;-67
2023/07/11 06:50:22;;;;;;;6.90;6.30;;;27.80;91.50;;;;;;4985727;28;20188;-68
2023/07/11 06:52:48;;;;;;;6.53;5.83;;;27.70;89.90;;;;;;4977289;28;20275;-68
2023/07/11 06:55:13;;;;;;;7.03;6.43;;;27.60;89.80;;;;;;4983494;28;20529;-68
2023/07/11 06:57:39;;;;;;;6.47;5.80;;;27.60;88.70;;;;;;4991382;28;20683;-68
2023/07/11 07:00:06;;;;;;;6.93;6.20;;;27.50;88.10;;;;;;4963722;28;20545;-69
2023/07/11 07:02:32;;;;;;;7.40;6.00;;;27.50;87.50;;;;;;4959934;28;20243;-69
2023/07/11 07:04:58;;;;;;;7.50;6.87;;;27.70;86.10;;;;;;4984092;28;20436;-68
2023/07/11 07:07:23;;;;;;;6.93;6.33;;;27.80;85.10;;;;;;4989901;28;20571;-68
2023/07/11 07:09:50;;;;;;;7.43;6.87;;;27.90;85.20;;;;;;4990596;28;20212;-69
2023/07/11 07:12:16;;;;;;;7.00;6.37;;;28.00;85.10;;;;;;4992370;28;20175;-68
2023/07/11 07:14:42;;;;;;;6.93;6.37;;;28.30;84.00;;;;;;4992428;28;20426;-69
2023/07/11 07:17:07;;;;;;;6.63;6.00;;;28.70;82.70;;;;;;4989723;28;20968;-69
2023/07/11 07:19:33;;;;;;;10.87;6.63;;;28.90;82.30;;;;;;4990847;28;20195;-69
2023/07/11 07:21:59;;;;;;;6.13;5.63;;;29.40;80.50;;;;;;4978644;28;20187;-68
2023/07/11 07:24:24;;;;;;;6.60;6.00;;;29.50;78.30;;;;;;4985646;28;20180;-69
2023/07/11 07:26:50;;;;;;;8.27;6.60;;;29.60;78.20;;;;;;4991274;28;20649;-69
2023/07/11 07:29:15;;;;;;;7.87;6.97;;;29.70;76.80;;;;;;4992266;28;20554;-69
2023/07/11 07:31:41;;;;;;;8.53;7.87;;;29.40;76.30;;;;;;4992229;28;20187;-68
2023/07/11 07:34:07;;;;;;;7.70;6.90;;;29.60;76.90;;;;;;4990201;28;20194;-69
2023/07/11 07:36:33;;;;;;;8.87;7.37;;;29.50;76.20;;;;;;4980565;28;20542;-69
2023/07/11 07:38:59;;;;;;;7.60;7.00;;;29.50;75.70;;;;;;4990752;28;20453;-68
2023/07/11 07:41:26;;;;;;;6.97;6.47;;;29.60;75.80;;;;;;4994327;28;20211;-69
2023/07/11 07:43:51;;;;;;;8.00;7.30;;;29.60;75.20;;;;;;4994092;28;20183;-69
2023/07/11 07:46:18;;;;;;;7.13;6.53;;;29.60;76.00;;;;;;4995022;28;20473;-69
2023/07/11 07:48:44;;;;;;;8.50;7.33;;;29.80;75.00;;;;;;4987281;28;20585;-69
2023/07/11 07:51:13;;;;;;;8.30;7.50;;;30.10;74.60;;;;;;4985759;28;20493;-71
2023/07/11 07:53:39;;;;;;;7.90;6.97;;;30.10;74.30;;;;;;4980118;28;20728;-71
2023/07/11 07:56:20;;;;;;;7.70;7.07;;;30.20;74.60;;;;;;4989169;28;20466;-70
2023/07/11 07:58:46;;;;;;;8.93;8.13;;;30.00;74.70;;;;;;4978318;28;20191;-71
2023/07/11 08:01:14;;;;;;;7.97;7.37;;;30.10;75.20;;;;;;4986659;28;20999;-70
2023/07/11 08:03:40;;;;;;;8.03;7.33;;;30.40;74.20;;;;;;4990933;28;20461;-70
2023/07/11 08:06:06;;;;;;;7.77;7.00;;;30.40;74.00;;;;;;4985502;28;20447;-68
2023/07/11 08:08:31;;;;;;;8.77;7.97;;;30.40;74.10;;;;;;5000752;23;20235;-70
2023/07/11 08:11:05;;;;;;;8.17;7.47;;;30.70;74.30;;;;;;5000782;28;20441;-70
2023/07/11 08:13:30;;;;;;;8.43;7.73;;;31.40;73.00;;;;;;5004541;28;20204;-70
2023/07/11 08:15:56;;;;;;;8.93;8.20;;;31.50;72.00;;;;;;5004875;28;20457;-70
2023/07/11 08:18:22;;;;;;;8.40;7.60;;;31.60;71.40;;;;;;5006648;28;20191;-70
2023/07/11 08:20:48;;;;;;;8.47;7.67;;;31.30;71.10;;;;;;5007086;28;20175;-71
2023/07/11 08:23:14;;;;;;;9.70;7.83;;;31.70;71.20;;;;;;5004724;28;20195;-71
2023/07/11 08:25:41;;;;;;;7.70;7.00;;;31.60;70.60;;;;;;5012465;28;20496;-70
2023/07/11 08:28:07;;;;;;;8.97;8.23;;;31.70;71.00;;;;;;5007351;28;20192;-70
2023/07/11 08:30:36;;;;;;;8.87;8.10;;;31.80;70.60;;;;;;4996428;28;20435;-71
2023/07/11 08:33:02;;;;;;;7.90;7.40;;;32.20;69.20;;;;;;5009449;28;21137;-70
2023/07/11 08:35:28;;;;;;;8.87;7.97;;;32.50;68.60;;;;;;5009815;28;20499;-71
2023/07/11 08:37:54;;;;;;;7.80;7.13;;;32.80;68.80;;;;;;5006615;28;20277;-69
2023/07/11 08:40:23;;;;;;;9.07;8.17;;;32.90;67.60;;;;;;5012035;28;20186;-71
2023/07/11 08:42:49;;;;;;;8.90;8.30;;;32.70;69.00;;;;;;5010902;28;20521;-70
2023/07/11 08:45:27;;;;;;;8.60;7.90;;;32.20;70.50;;;;;;5011319;28;20521;-71
2023/07/11 08:48:03;;;;;;;7.90;7.40;;;32.10;70.70;;;;;;5006316;28;20171;-70
2023/07/11 08:50:36;;;;;;;8.80;7.73;;;32.60;70.00;;;;;;5004450;28;20433;-71
2023/07/11 08:53:11;;;;;;;8.73;8.03;;;32.30;70.30;;;;;;5011059;28;20491;-71
2023/07/11 08:55:43;;;;;;;7.47;6.97;;;32.80;69.60;;;;;;4999013;28;20438;-71
2023/07/11 08:58:17;;;;;;;8.93;8.33;;;33.60;68.80;;;;;;5010094;28;20499;-70
2023/07/11 09:00:46;;;;;;;11.43;10.63;;;33.50;67.50;;;;;;5011860;28;20434;-70
2023/07/11 09:03:32;;;;;;;9.23;8.53;;;33.80;67.00;;;;;;5006267;28;20445;-71
2023/07/11 09:06:12;;;;;;;9.23;8.53;;;33.70;67.40;;;;;;5005380;28;20950;-71
2023/07/11 09:08:43;;;;;;;10.03;9.23;;;33.50;67.40;;;;;;5011991;28;20569;-71
2023/07/11 09:11:12;;;;;;;8.07;7.47;;;34.00;66.90;;;;;;5003334;28;20529;-71
2023/07/11 09:13:56;;;;;;;8.77;7.77;;;34.40;66.20;;;;;;5010188;28;20537;-70
2023/07/11 09:16:46;;;;;;;8.20;7.60;;;34.00;65.30;;;;;;5008548;28;20487;-71
2023/07/11 09:19:35;;;;;;;9.80;8.80;;;34.00;64.00;;;;;;5005797;28;20545;-70
2023/07/11 09:22:09;;;;;;;9.03;8.33;;;34.20;64.70;;;;;;4999161;28;20449;-70
2023/07/11 09:24:51;;;;;;;9.13;8.27;;;34.40;63.60;;;;;;5007950;28;20429;-71
2023/07/11 09:27:45;;;;;;;9.47;8.57;;;34.40;64.10;;;;;;5009917;28;20840;-71
2023/07/11 09:30:19;;;;;;;8.50;7.80;;;34.80;63.00;;;;;;5008303;28;20554;-71
2023/07/11 09:32:45;;;;;;;8.13;7.53;;;34.60;62.60;;;;;;5008866;28;20473;-71
2023/07/11 09:35:24;;;;;;;9.03;8.33;;;34.40;61.10;;;;;;5004574;28;20899;-70
2023/07/11 09:37:55;;;;;;;9.50;8.50;;;33.90;62.40;;;;;;5000764;28;20676;-70
2023/07/11 09:40:31;;;;;;;9.07;8.37;;;33.60;64.10;;;;;;5008802;28;20442;-71
2023/07/11 09:42:57;;;;;;;8.20;7.60;;;33.60;64.00;;;;;;4985267;28;20449;-70
2023/07/11 09:45:37;;;;;;;9.33;8.43;;;33.80;62.60;;;;;;5005117;28;20798;-71
2023/07/11 09:48:14;;;;;;;8.93;8.07;;;34.80;61.50;;;;;;5002057;28;20978;-70
2023/07/11 09:50:59;;;;;;;8.90;8.23;;;35.80;59.50;;;;;;5011934;28;20453;-70
2023/07/11 09:53:26;;;;;;;9.33;8.53;;;35.70;58.80;;;;;;5008285;28;20781;-71
2023/07/11 09:56:00;;;;;;;8.37;7.57;;;36.10;58.00;;;;;;4989496;28;20528;-71
2023/07/11 09:58:32;;;;;;;8.63;7.80;;;36.10;57.30;;;;;;5006909;28;20458;-71
2023/07/11 10:01:02;;;;;;;7.97;7.37;;;36.80;56.60;;;;;;4999114;28;20440;-71
2023/07/11 10:03:30;;;;;;;8.50;7.77;;;36.10;56.20;;;;;;5004769;28;20442;-69
2023/07/11 10:05:56;;;;;;;8.93;8.10;;;36.30;56.00;;;;;;4996577;28;20449;-69
2023/07/11 10:08:27;;;;;;;9.40;8.17;;;36.10;56.50;;;;;;5007820;28;20584;-69
2023/07/11 10:10:55;;;;;;;8.07;7.27;;;36.10;55.60;;;;;;5007937;28;20453;-69
2023/07/11 10:13:22;;;;;;;9.13;8.33;;;36.30;55.80;;;;;;5001156;28;21216;-69
2023/07/11 10:15:53;;;;;;;9.00;8.20;;;37.10;55.00;;;;;;5000400;28;20585;-71
2023/07/11 10:18:22;;;;;;;8.27;7.57;;;37.70;54.00;;;;;;5009356;28;20958;-71
2023/07/11 10:20:52;;;;;;;8.30;7.60;;;38.20;53.40;;;;;;5007820;28;20791;-70
2023/07/11 10:23:22;;;;;;;7.80;7.13;;;37.70;53.30;;;;;;5005712;28;20442;-69
2023/07/11 10:25:52;;;;;;;9.97;9.27;;;37.50;52.90;;;;;;5002697;28;20439;-73
2023/07/11 10:28:33;;;;;;;7.97;7.47;;;38.60;52.00;;;;;;5005253;28;20457;-69
2023/07/11 10:31:17;;;;;;;9.57;8.53;;;39.10;49.70;;;;;;5008246;28;20449;-72
2023/07/11 10:33:56;;;;;;;8.40;7.80;;;39.20;50.10;;;;;;5006123;28;20579;-71
2023/07/11 10:36:34;;;;;;;11.23;7.83;;;39.10;48.80;;;;;;5005738;28;20667;-69
2023/07/11 10:39:09;;;;;;;8.00;7.40;;;39.90;49.20;;;;;;5005859;28;20465;-71
2023/07/11 10:42:03;;;;;;;7.80;7.20;;;40.80;47.30;;;;;;5005326;28;20445;-71
2023/07/11 10:44:36;;;;;;;8.73;7.93;;;39.90;47.00;;;;;;5008960;28;20537;-70
2023/07/11 10:47:04;;;;;;;8.73;8.07;;;39.10;48.20;;;;;;5001058;28;20457;-69
2023/07/11 10:49:35;;;;;;;8.70;8.10;;;38.90;48.40;;;;;;5009833;28;20462;-69
2023/07/11 10:52:06;;;;;;;8.03;7.47;;;38.60;48.80;;;;;;5005588;28;20456;-69
2023/07/11 10:54:50;;;;;;;8.27;7.67;;;39.80;48.40;;;;;;5005690;28;20437;-67
2023/07/11 10:57:38;;;;;;;8.40;7.73;;;41.20;46.50;;;;;;5007192;28;20483;-67
2023/07/11 11:00:08;;;;;;;9.90;9.07;;;42.30;45.20;;;;;;5006719;28;20468;-69
2023/07/11 11:03:00;;;;;;;9.57;8.77;;;43.00;43.60;;;;;;5003674;28;20438;-67
2023/07/11 11:05:53;;;;;;;8.60;8.00;;;42.40;43.40;;;;;;5005449;28;20808;-70
2023/07/11 11:08:48;;;;;;;9.27;8.43;;;41.30;44.00;;;;;;5000592;28;20467;-70
2023/07/11 11:11:34;;;;;;;9.40;8.60;;;40.10;44.60;;;;;;5003570;28;20516;-69
2023/07/11 11:14:26;;;;;;;8.60;7.80;;;40.70;44.50;;;;;;5009777;28;20942;-70
2023/07/11 11:17:25;;;;;;;9.27;8.53;;;39.60;45.20;;;;;;5001821;28;20458;-70
2023/07/11 11:19:50;;;;;;;9.80;8.83;;;38.80;45.90;;;;;;5008956;28;20521;-69
2023/07/11 11:22:37;;;;;;;9.53;8.67;;;37.80;47.10;;;;;;5014381;28;20864;-70
2023/07/11 11:25:14;;;;;;;9.17;8.47;;;38.40;47.30;;;;;;5007106;28;20186;-70
2023/07/11 11:27:52;;;;;;;10.23;9.23;;;40.10;45.80;;;;;;5014586;28;20464;-70
2023/07/11 11:30:49;;;;;;;9.83;9.13;;;40.40;44.70;;;;;;5013487;28;20532;-70
2023/07/11 11:33:31;;;;;;;10.63;9.60;;;40.70;44.70;;;;;;5006388;28;20438;-70
2023/07/11 11:36:30;;;;;;;9.40;8.63;;;41.90;42.90;;;;;;5011861;28;20487;-70
2023/07/11 11:39:34;;;;;;;8.83;8.23;;;43.10;41.70;;;;;;4977771;28;20504;-71
2023/07/11 11:42:05;;;;;;;9.13;8.53;;;43.70;40.80;;;;;;5013103;28;20432;-70
2023/07/11 11:44:45;;;;;;;9.60;8.83;;;45.30;39.90;;;;;;5011542;28;20508;-70
2023/07/11 11:47:12;;;;;;;16.20;8.67;;;46.30;38.00;;;;;;5010936;28;20977;-70
2023/07/11 11:49:39;;;;;;;9.33;8.60;;;43.60;38.30;;;;;;5004219;28;20987;-70
2023/07/11 11:52:06;;;;;;;8.67;7.97;;;43.00;38.70;;;;;;5002152;28;20465;-70
2023/07/11 11:54:37;;;;;;;9.87;8.97;;;42.40;39.10;;;;;;5009848;28;20537;-70
2023/07/11 11:57:04;;;;;;;8.50;7.87;;;42.10;39.70;;;;;;5011059;28;20437;-69
2023/07/11 11:59:30;;;;;;;9.77;9.03;;;42.20;39.30;;;;;;5010118;28;20980;-70
2023/07/11 12:02:10;;;;;;;8.00;7.30;;;42.20;39.00;;;;;;5008728;28;20556;-70
2023/07/11 12:04:42;;;;;;;8.83;8.03;;;42.70;38.90;;;;;;5005739;28;20537;-70
2023/07/11 12:07:10;;;;;;;10.10;9.27;;;42.70;38.20;;;;;;5004963;28;20465;-70
2023/07/11 12:09:48;;;;;;;9.43;8.27;;;41.20;39.50;;;;;;5003569;28;20478;-70
2023/07/11 12:12:15;;;;;;;10.60;8.60;;;41.10;40.30;;;;;;5006210;28;20488;-70
2023/07/11 12:14:57;;;;;;;8.13;7.63;;;42.50;39.40;;;;;;5014056;28;21010;-70
2023/07/11 12:17:29;;;;;;;8.17;7.50;;;43.20;38.20;;;;;;5007785;28;20447;-70
2023/07/11 12:20:06;;;;;;;9.20;8.40;;;43.20;38.20;;;;;;5007065;28;20546;-70
2023/07/11 12:22:52;;;;;;;8.70;8.10;;;44.10;37.70;;;;;;5007690;28;20965;-70
2023/07/11 12:25:26;;;;;;;8.30;7.73;;;44.50;37.20;;;;;;5005605;28;20445;-70
2023/07/11 12:28:01;;;;;;;7.33;6.83;;;45.20;35.90;;;;;;5001685;28;20473;-71
2023/07/11 12:30:29;;;;;;;8.30;7.80;;;45.00;35.80;;;;;;5004217;28;20539;-70
2023/07/11 12:32:55;;;;;;;8.70;8.10;;;45.30;35.60;;;;;;5010367;28;20442;-68
2023/07/11 12:35:33;;;;;;;8.73;8.03;;;47.00;35.20;;;;;;5004681;28;20439;-68
2023/07/11 12:38:01;;;;;;;9.17;8.47;;;48.80;34.10;;;;;;5007477;28;20457;-68
2023/07/11 12:40:39;;;;;;;9.43;8.50;;;48.60;33.10;;;;;;5011099;28;20524;-67
2023/07/11 12:43:21;;;;;;;8.47;7.97;;;47.50;33.20;;;;;;5004608;28;20781;-72
2023/07/11 12:45:59;;;;;;;8.90;8.27;;;46.90;33.70;;;;;;5006660;28;20452;-69
2023/07/11 12:48:35;;;;;;;9.00;8.20;;;47.40;30.90;;;;;;4997372;28;20458;-70